Date,TemperatureHighF,TemperatureAvgF,TemperatureLowF,DewpointHighF,DewpointAvgF,DewpointLowF,HumidityHigh,HumidityAvg,HumidityLow,PressureMaxIn,PressureMinIn,WindSpeedMaxMPH,WindSpeedAvgMPH,GustSpeedMaxMPH,PrecipitationSumIn
2013-3-1,57.1,42.0,29.6,38.3,32.8,28.4,96,73,37,30.22,30.12,15,2,19,0.00
2013-3-2,50.7,38.0,29.5,34.0,28.5,25.0,93,71,41,30.31,30.18,11,1,15,0.02
2013-3-3,59.6,42.9,26.5,36.2,30.5,25.0,94,66,32,30.30,30.08,11,1,11,0.00
2013-3-4,74.3,59.3,41.5,59.9,50.8,36.1,92,75,53,30.08,29.81,15,3,27,0.00
2013-3-5,70.0,61.5,44.8,62.0,46.2,26.5,93,61,28,30.28,29.82,15,3,39,0.00
2013-3-6,64.4,48.3,35.3,36.6,29.4,23.0,81,51,21,30.39,30.24,8,2,10,0.00
2013-3-7,65.7,48.2,31.9,41.1,35.1,30.1,94,65,29,30.37,30.22,6,1,8,0.00
2013-3-8,70.5,53.7,34.6,47.6,41.6,33.2,96,68,36,30.30,30.11,6,1,11,0.00
2013-3-9,72.7,61.3,51.2,61.8,55.1,46.5,89,80,66,30.12,29.89,6,1,14,0.00
2013-3-10,70.6,59.4,50.6,63.7,57.0,44.7,97,92,69,29.98,29.81,9,1,22,0.14
2013-3-11,58.5,48.0,36.6,44.6,36.6,32.7,93,66,40,30.07,29.97,15,3,19,0.00
2013-3-12,68.2,47.8,31.1,40.9,34.6,26.3,97,68,24,30.28,30.07,7,1,10,0.00
2013-3-13,69.1,52.1,36.5,39.0,35.0,27.1,95,59,23,30.45,30.27,10,1,13,0.00
2013-3-14,72.2,53.2,33.7,43.5,36.4,31.1,94,59,26,30.45,30.27,10,1,12,0.00
2013-3-15,79.9,60.9,41.7,56.3,48.0,40.1,95,67,32,30.29,30.07,13,2,16,0.00
2013-3-16,79.4,65.0,50.3,59.8,55.3,49.2,98,74,43,30.07,29.87,12,2,22,0.00
2013-3-17,78.9,65.8,54.1,69.6,61.0,53.0,98,85,60,29.93,29.74,14,2,19,0.05
2013-3-18,81.1,68.2,63.0,68.3,63.5,49.1,98,86,59,29.98,29.76,12,3,18,0.02
2013-3-19,74.0,61.3,49.5,50.2,43.7,38.6,84,56,29,30.07,29.95,9,3,13,0.00
2013-3-20,72.3,57.0,44.3,49.5,40.7,28.4,92,59,23,30.23,30.05,9,2,14,0.15
2013-3-21,65.2,53.8,40.8,44.5,38.3,34.5,92,59,34,30.07,29.80,8,2,15,0.00
2013-3-22,78.8,65.1,55.3,68.5,58.7,44.6,93,80,60,29.83,29.68,7,2,9,0.00
2013-3-23,73.2,63.9,57.7,66.7,60.2,54.2,95,88,78,29.81,29.58,8,1,15,0.00
2013-3-24,59.7,54.0,39.6,54.8,42.9,31.3,94,68,38,30.11,29.64,19,4,27,0.00
2013-3-25,59.9,44.8,31.7,32.2,26.7,19.4,85,54,24,30.34,30.11,20,2,24,0.00
2013-3-26,57.2,41.6,27.0,32.2,26.9,22.8,92,60,29,30.46,30.33,11,2,15,0.00
2013-3-27,65.2,45.9,29.5,39.5,32.0,27.7,94,65,28,30.45,30.24,7,1,10,0.00
2013-3-28,70.9,54.1,37.7,45.8,39.3,31.5,93,63,24,30.36,30.21,7,1,10,0.00
2013-3-29,79.3,63.1,46.1,58.3,50.5,43.1,96,68,31,30.28,30.14,12,1,14,0.00
2013-3-30,76.6,63.6,54.2,65.5,58.2,52.8,98,84,58,30.18,29.96,9,1,16,0.27
2013-3-31,71.0,61.3,54.9,65.2,59.7,54.3,98,95,80,30.05,29.83,33,1,42,0.80